sensor_id;sensor_type;location;lat;lon;timestamp;pressure;altitude;pressure_sealevel;temperature;humidity
19795;BME280;10057;59.402;17.866;2024-02-26T00:01:48;100743.25;;;0.78;80.59
19795;BME280;10057;59.402;17.866;2024-02-26T00:04:15;100743.25;;;0.78;80.43
19795;BME280;10057;59.402;17.866;2024-02-26T00:06:42;100745.00;;;0.78;80.37
19795;BME280;10057;59.402;17.866;2024-02-26T00:09:10;100740.63;;;0.75;80.42
19795;BME280;10057;59.402;17.866;2024-02-26T00:11:37;100727.56;;;0.70;80.20
19795;BME280;10057;59.402;17.866;2024-02-26T00:14:04;100736.28;;;0.73;80.14
19795;BME280;10057;59.402;17.866;2024-02-26T00:16:30;100744.97;;;0.75;80.47
19795;BME280;10057;59.402;17.866;2024-02-26T00:18:58;100743.25;;;0.72;80.35
19795;BME280;10057;59.402;17.866;2024-02-26T00:21:25;100745.84;;;0.69;80.24
19795;BME280;10057;59.402;17.866;2024-02-26T00:23:53;100738.00;;;0.69;80.38
19795;BME280;10057;59.402;17.866;2024-02-26T00:26:20;100739.72;;;0.67;80.78
19795;BME280;10057;59.402;17.866;2024-02-26T00:28:46;100748.47;;;0.69;80.38
19795;BME280;10057;59.402;17.866;2024-02-26T00:31:13;100737.09;;;0.64;80.38
19795;BME280;10057;59.402;17.866;2024-02-26T00:33:40;100739.75;;;0.65;80.62
19795;BME280;10057;59.402;17.866;2024-02-26T00:36:07;100741.47;;;0.68;80.50
19795;BME280;10057;59.402;17.866;2024-02-26T00:38:35;100744.09;;;0.66;80.56
19795;BME280;10057;59.402;17.866;2024-02-26T00:41:01;100740.63;;;0.66;80.65
19795;BME280;10057;59.402;17.866;2024-02-26T00:43:28;100743.22;;;0.66;80.56
19795;BME280;10057;59.402;17.866;2024-02-26T00:45:55;100728.41;;;0.62;80.55
19795;BME280;10057;59.402;17.866;2024-02-26T00:48:22;100747.56;;;0.64;80.88
19795;BME280;10057;59.402;17.866;2024-02-26T00:50:49;100736.22;;;0.56;80.63
19795;BME280;10057;59.402;17.866;2024-02-26T00:53:16;100742.34;;;0.64;80.70
19795;BME280;10057;59.402;17.866;2024-02-26T00:55:42;100750.16;;;0.64;80.62
19795;BME280;10057;59.402;17.866;2024-02-26T00:58:09;100750.16;;;0.61;80.71
19795;BME280;10057;59.402;17.866;2024-02-26T01:00:36;100751.03;;;0.61;80.41
19795;BME280;10057;59.402;17.866;2024-02-26T01:03:03;100751.91;;;0.59;80.31
19795;BME280;10057;59.402;17.866;2024-02-26T01:05:30;100742.28;;;0.55;80.60
19795;BME280;10057;59.402;17.866;2024-02-26T01:07:57;100739.69;;;0.56;80.46
19795;BME280;10057;59.402;17.866;2024-02-26T01:10:23;100742.28;;;0.55;80.43
19795;BME280;10057;59.402;17.866;2024-02-26T01:12:50;100742.31;;;0.56;80.57
19795;BME280;10057;59.402;17.866;2024-02-26T01:15:17;100741.44;;;0.56;80.65
19795;BME280;10057;59.402;17.866;2024-02-26T01:17:45;100744.94;;;0.56;80.69
19795;BME280;10057;59.402;17.866;2024-02-26T01:20:12;100739.69;;;0.53;80.48
19795;BME280;10057;59.402;17.866;2024-02-26T01:22:39;100748.41;;;0.57;80.60
19795;BME280;10057;59.402;17.866;2024-02-26T01:25:07;100742.28;;;0.55;80.48
19795;BME280;10057;59.402;17.866;2024-02-26T01:27:34;100750.13;;;0.55;80.10
19795;BME280;10057;59.402;17.866;2024-02-26T01:30:05;100730.06;;;0.43;80.33
19795;BME280;10057;59.402;17.866;2024-02-26T01:32:32;100743.16;;;0.49;80.83
19795;BME280;10057;59.402;17.866;2024-02-26T01:34:59;100743.16;;;0.49;80.65
19795;BME280;10057;59.402;17.866;2024-02-26T01:37:26;100748.38;;;0.49;80.76
19795;BME280;10057;59.402;17.866;2024-02-26T01:39:52;100751.88;;;0.48;80.62
19795;BME280;10057;59.402;17.866;2024-02-26T01:42:19;100753.59;;;0.46;80.52
19795;BME280;10057;59.402;17.866;2024-02-26T01:44:46;100752.72;;;0.45;80.60
19795;BME280;10057;59.402;17.866;2024-02-26T01:47:13;100737.88;;;0.35;80.40
19795;BME280;10057;59.402;17.866;2024-02-26T01:49:40;100744.88;;;0.42;80.38
19795;BME280;10057;59.402;17.866;2024-02-26T01:52:08;100747.44;;;0.41;80.56
19795;BME280;10057;59.402;17.866;2024-02-26T01:54:37;100751.81;;;0.43;80.37
19795;BME280;10057;59.402;17.866;2024-02-26T01:57:06;100737.91;;;0.38;80.80
19795;BME280;10057;59.402;17.866;2024-02-26T01:59:34;100748.34;;;0.40;80.32
19795;BME280;10057;59.402;17.866;2024-02-26T02:02:03;100745.72;;;0.38;80.42
19795;BME280;10057;59.402;17.866;2024-02-26T02:04:32;100737.00;;;0.36;80.30
19795;BME280;10057;59.402;17.866;2024-02-26T02:06:59;100756.16;;;0.40;80.72
19795;BME280;10057;59.402;17.866;2024-02-26T02:09:27;100755.28;;;0.39;80.26
19795;BME280;10057;59.402;17.866;2024-02-26T02:11:55;100748.31;;;0.32;80.66
19795;BME280;10057;59.402;17.866;2024-02-26T02:14:22;100753.56;;;0.38;80.42
19795;BME280;10057;59.402;17.866;2024-02-26T02:16:49;100761.38;;;0.35;80.52
19795;BME280;10057;59.402;17.866;2024-02-26T02:19:16;100762.25;;;0.36;80.52
19795;BME280;10057;59.402;17.866;2024-02-26T02:21:42;100748.28;;;0.26;80.54
19795;BME280;10057;59.402;17.866;2024-02-26T02:24:09;100759.63;;;0.31;80.31
19795;BME280;10057;59.402;17.866;2024-02-26T02:26:36;100745.66;;;0.26;80.88
19795;BME280;10057;59.402;17.866;2024-02-26T02:29:03;100751.78;;;0.28;80.39
19795;BME280;10057;59.402;17.866;2024-02-26T02:31:30;100751.75;;;0.30;80.59
19795;BME280;10057;59.402;17.866;2024-02-26T02:33:57;100743.06;;;0.29;80.29
19795;BME280;10057;59.402;17.866;2024-02-26T02:36:24;100745.69;;;0.29;80.64
19795;BME280;10057;59.402;17.866;2024-02-26T02:38:51;100758.75;;;0.32;80.72
19795;BME280;10057;59.402;17.866;2024-02-26T02:41:18;100757.84;;;0.24;80.39
19795;BME280;10057;59.402;17.866;2024-02-26T02:43:45;100750.88;;;0.21;80.47
19795;BME280;10057;59.402;17.866;2024-02-26T02:46:12;100761.34;;;0.29;80.39
19795;BME280;10057;59.402;17.866;2024-02-26T02:48:38;100755.22;;;0.24;80.54
19795;BME280;10057;59.402;17.866;2024-02-26T02:51:05;100770.06;;;0.31;80.84
19795;BME280;10057;59.402;17.866;2024-02-26T02:53:32;100770.06;;;0.33;80.67
19795;BME280;10057;59.402;17.866;2024-02-26T02:55:59;100761.34;;;0.29;80.57
19795;BME280;10057;59.402;17.866;2024-02-26T02:58:26;100772.69;;;0.36;80.38
19795;BME280;10057;59.402;17.866;2024-02-26T03:00:52;100751.75;;;0.30;80.66
19795;BME280;10057;59.402;17.866;2024-02-26T03:03:21;100757.88;;;0.36;80.91
19795;BME280;10057;59.402;17.866;2024-02-26T03:05:50;100764.88;;;0.42;80.45
19795;BME280;10057;59.402;17.866;2024-02-26T03:08:17;100767.50;;;0.51;80.70
19795;BME280;10057;59.402;17.866;2024-02-26T03:10:45;100762.28;;;0.45;81.01
19795;BME280;10057;59.402;17.866;2024-02-26T03:13:12;100757.06;;;0.45;80.59
19795;BME280;10057;59.402;17.866;2024-02-26T03:15:40;100756.16;;;0.44;80.42
19795;BME280;10057;59.402;17.866;2024-02-26T03:18:07;100760.53;;;0.44;80.38
19795;BME280;10057;59.402;17.866;2024-02-26T03:20:34;100752.69;;;0.39;80.31
19795;BME280;10057;59.402;17.866;2024-02-26T03:23:01;100768.41;;;0.49;80.46
19795;BME280;10057;59.402;17.866;2024-02-26T03:25:27;100752.69;;;0.39;80.81
19795;BME280;10057;59.402;17.866;2024-02-26T03:27:54;100754.47;;;0.51;80.47
19795;BME280;10057;59.402;17.866;2024-02-26T03:30:21;100756.22;;;0.54;80.50
19795;BME280;10057;59.402;17.866;2024-02-26T03:32:48;100764.06;;;0.57;80.71
19795;BME280;10057;59.402;17.866;2024-02-26T03:35:14;100765.81;;;0.56;80.83
19795;BME280;10057;59.402;17.866;2024-02-26T03:37:41;100774.53;;;0.58;80.64
19795;BME280;10057;59.402;17.866;2024-02-26T03:40:08;100762.31;;;0.57;80.93
19795;BME280;10057;59.402;17.866;2024-02-26T03:42:35;100754.50;;;0.56;80.50
19795;BME280;10057;59.402;17.866;2024-02-26T03:45:02;100767.59;;;0.66;80.91
19795;BME280;10057;59.402;17.866;2024-02-26T03:47:29;100762.34;;;0.63;80.76
19795;BME280;10057;59.402;17.866;2024-02-26T03:49:56;100753.63;;;0.60;80.66
19795;BME280;10057;59.402;17.866;2024-02-26T03:52:22;100761.50;;;0.70;80.82
19795;BME280;10057;59.402;17.866;2024-02-26T03:54:49;100759.78;;;0.74;80.52
19795;BME280;10057;59.402;17.866;2024-02-26T03:57:16;100764.13;;;0.72;80.84
19795;BME280;10057;59.402;17.866;2024-02-26T03:59:43;100771.09;;;0.78;80.91
19795;BME280;10057;59.402;17.866;2024-02-26T04:02:10;100772.84;;;0.82;80.68
19795;BME280;10057;59.402;17.866;2024-02-26T04:04:36;100771.97;;;0.81;80.59
19795;BME280;10057;59.402;17.866;2024-02-26T04:07:03;100768.50;;;0.85;80.74
19795;BME280;10057;59.402;17.866;2024-02-26T04:09:33;100765.06;;;0.86;80.75
19795;BME280;10057;59.402;17.866;2024-02-26T04:12:00;100778.13;;;0.92;81.13
19795;BME280;10057;59.402;17.866;2024-02-26T04:14:26;100778.13;;;0.94;80.79
19795;BME280;10057;59.402;17.866;2024-02-26T04:16:53;100780.72;;;0.95;80.88
19795;BME280;10057;59.402;17.866;2024-02-26T04:19:21;100778.13;;;0.95;80.73
19795;BME280;10057;59.402;17.866;2024-02-26T04:21:47;100775.50;;;0.95;80.94
19795;BME280;10057;59.402;17.866;2024-02-26T04:24:14;100774.66;;;1.00;80.85
19795;BME280;10057;59.402;17.866;2024-02-26T04:26:41;100779.00;;;1.02;80.90
19795;BME280;10057;59.402;17.866;2024-02-26T04:29:08;100787.72;;;1.06;80.83
19795;BME280;10057;59.402;17.866;2024-02-26T04:31:34;100781.66;;;1.07;81.30
19795;BME280;10057;59.402;17.866;2024-02-26T04:34:01;100794.72;;;1.13;80.94
19795;BME280;10057;59.402;17.866;2024-02-26T04:36:28;100774.69;;;1.07;81.16
19795;BME280;10057;59.402;17.866;2024-02-26T04:38:55;100785.16;;;1.18;81.24
19795;BME280;10057;59.402;17.866;2024-02-26T04:41:22;100779.94;;;1.16;81.48
19795;BME280;10057;59.402;17.866;2024-02-26T04:43:49;100783.44;;;1.23;81.19
19795;BME280;10057;59.402;17.866;2024-02-26T04:46:15;100766.84;;;1.13;81.09
19795;BME280;10057;59.402;17.866;2024-02-26T04:48:42;100786.03;;;1.26;81.07
19795;BME280;10057;59.402;17.866;2024-02-26T04:51:09;100783.44;;;1.28;80.95
19795;BME280;10057;59.402;17.866;2024-02-26T04:53:36;100779.94;;;1.24;80.94
19795;BME280;10057;59.402;17.866;2024-02-26T04:56:03;100783.41;;;1.29;81.32
19795;BME280;10057;59.402;17.866;2024-02-26T04:58:30;100777.34;;;1.27;80.94
19795;BME280;10057;59.402;17.866;2024-02-26T05:00:56;100772.97;;;1.28;81.03
19795;BME280;10057;59.402;17.866;2024-02-26T05:03:23;100781.69;;;1.31;81.02
19795;BME280;10057;59.402;17.866;2024-02-26T05:05:50;100780.81;;;1.32;80.89
19795;BME280;10057;59.402;17.866;2024-02-26T05:08:17;100781.66;;;1.33;80.93
19795;BME280;10057;59.402;17.866;2024-02-26T05:10:45;100783.44;;;1.34;81.05
19795;BME280;10057;59.402;17.866;2024-02-26T05:13:12;100789.53;;;1.37;80.98
19795;BME280;10057;59.402;17.866;2024-02-26T05:15:40;100772.09;;;1.26;81.04
19795;BME280;10057;59.402;17.866;2024-02-26T05:18:07;100790.38;;;1.36;81.40
19795;BME280;10057;59.402;17.866;2024-02-26T05:20:35;100781.69;;;1.36;81.27
19795;BME280;10057;59.402;17.866;2024-02-26T05:23:02;100777.31;;;1.39;81.36
19795;BME280;10057;59.402;17.866;2024-02-26T05:25:30;100787.78;;;1.39;80.98
19795;BME280;10057;59.402;17.866;2024-02-26T05:27:57;100776.47;;;1.39;81.26
19795;BME280;10057;59.402;17.866;2024-02-26T05:30:24;100762.53;;;1.31;81.63
19795;BME280;10057;59.402;17.866;2024-02-26T05:32:53;100770.38;;;1.38;81.08
19795;BME280;10057;59.402;17.866;2024-02-26T05:35:20;100771.22;;;1.39;81.12
19795;BME280;10057;59.402;17.866;2024-02-26T05:37:47;100774.72;;;1.41;81.12
19795;BME280;10057;59.402;17.866;2024-02-26T05:40:14;100764.25;;;1.35;81.29
19795;BME280;10057;59.402;17.866;2024-02-26T05:42:41;100779.94;;;1.42;81.23
19795;BME280;10057;59.402;17.866;2024-02-26T05:45:08;100770.38;;;1.38;81.40
19795;BME280;10057;59.402;17.866;2024-02-26T05:47:35;100786.91;;;1.39;81.50
19795;BME280;10057;59.402;17.866;2024-02-26T05:50:02;100766.00;;;1.27;80.99
19795;BME280;10057;59.402;17.866;2024-02-26T05:52:29;100782.53;;;1.36;81.19
19795;BME280;10057;59.402;17.866;2024-02-26T05:54:59;100779.06;;;1.33;81.17
19795;BME280;10057;59.402;17.866;2024-02-26T05:57:25;100786.91;;;1.36;80.91
19795;BME280;10057;59.402;17.866;2024-02-26T05:59:52;100785.16;;;1.32;81.18
19795;BME280;10057;59.402;17.866;2024-02-26T06:02:19;100783.44;;;1.28;81.27
19795;BME280;10057;59.402;17.866;2024-02-26T06:04:45;100779.06;;;1.28;81.41
19795;BME280;10057;59.402;17.866;2024-02-26T06:07:13;100779.94;;;1.24;81.34
19795;BME280;10057;59.402;17.866;2024-02-26T06:09:40;100766.84;;;1.23;81.27
19795;BME280;10057;59.402;17.866;2024-02-26T06:12:07;100765.13;;;1.23;81.16
19795;BME280;10057;59.402;17.866;2024-02-26T06:14:33;100779.94;;;1.32;81.18
19795;BME280;10057;59.402;17.866;2024-02-26T06:17:00;100770.34;;;1.23;81.31
19795;BME280;10057;59.402;17.866;2024-02-26T06:19:27;100788.66;;;1.28;81.11
19795;BME280;10057;59.402;17.866;2024-02-26T06:21:53;100775.59;;;1.20;81.56
19795;BME280;10057;59.402;17.866;2024-02-26T06:24:20;100772.97;;;1.25;81.29
19795;BME280;10057;59.402;17.866;2024-02-26T06:26:50;100799.13;;;1.35;81.17
19795;BME280;10057;59.402;17.866;2024-02-26T06:29:17;100800.00;;;1.37;81.67
19795;BME280;10057;59.402;17.866;2024-02-26T06:31:43;100794.78;;;1.37;81.17
19795;BME280;10057;59.402;17.866;2024-02-26T06:34:10;100806.09;;;1.41;81.59
19795;BME280;10057;59.402;17.866;2024-02-26T06:36:38;100797.38;;;1.42;81.22
19795;BME280;10057;59.402;17.866;2024-02-26T06:39:07;100806.13;;;1.44;81.26
19795;BME280;10057;59.402;17.866;2024-02-26T06:41:34;100804.34;;;1.46;81.11
19795;BME280;10057;59.402;17.866;2024-02-26T06:44:02;100806.09;;;1.49;81.26
19795;BME280;10057;59.402;17.866;2024-02-26T06:46:29;100814.84;;;1.51;81.46
19795;BME280;10057;59.402;17.866;2024-02-26T06:48:57;100814.84;;;1.51;81.37
19795;BME280;10057;59.402;17.866;2024-02-26T06:51:24;100808.72;;;1.55;81.38
19795;BME280;10057;59.402;17.866;2024-02-26T06:53:50;100813.97;;;1.58;81.38
19795;BME280;10057;59.402;17.866;2024-02-26T06:56:17;100815.72;;;1.62;81.29
19795;BME280;10057;59.402;17.866;2024-02-26T06:58:44;100817.44;;;1.66;81.14
19795;BME280;10057;59.402;17.866;2024-02-26T07:01:12;100804.38;;;1.66;81.14
19795;BME280;10057;59.402;17.866;2024-02-26T07:03:42;100814.81;;;1.74;81.51
19795;BME280;10057;59.402;17.866;2024-02-26T07:06:09;100810.47;;;1.76;81.33
19795;BME280;10057;59.402;17.866;2024-02-26T07:08:35;100818.34;;;1.82;81.50
19795;BME280;10057;59.402;17.866;2024-02-26T07:11:02;100822.66;;;1.84;81.43
19795;BME280;10057;59.402;17.866;2024-02-26T07:13:29;100814.81;;;1.90;81.38
19795;BME280;10057;59.402;17.866;2024-02-26T07:15:56;100827.06;;;1.92;81.32
19795;BME280;10057;59.402;17.866;2024-02-26T07:18:22;100832.28;;;2.02;81.49
19795;BME280;10057;59.402;17.866;2024-02-26T07:20:49;100831.38;;;2.08;81.25
19795;BME280;10057;59.402;17.866;2024-02-26T07:23:16;100819.19;;;2.13;81.61
19795;BME280;10057;59.402;17.866;2024-02-26T07:25:44;100831.38;;;2.26;81.24
19795;BME280;10057;59.402;17.866;2024-02-26T07:28:14;100822.63;;;2.27;81.24
19795;BME280;10057;59.402;17.866;2024-02-26T07:30:40;100820.88;;;2.35;81.23
19795;BME280;10057;59.402;17.866;2024-02-26T07:33:07;100819.09;;;2.42;81.08
19795;BME280;10057;59.402;17.866;2024-02-26T07:35:34;100829.59;;;2.50;81.37
19795;BME280;10057;59.402;17.866;2024-02-26T07:38:02;100824.31;;;2.53;81.21
19795;BME280;10057;59.402;17.866;2024-02-26T07:40:29;100831.31;;;2.57;81.24
19795;BME280;10057;59.402;17.866;2024-02-26T07:42:56;100832.16;;;2.60;81.11
19795;BME280;10057;59.402;17.866;2024-02-26T07:45:23;100829.53;;;2.65;81.29
19795;BME280;10057;59.402;17.866;2024-02-26T07:47:50;100832.09;;;2.73;81.18
19795;BME280;10057;59.402;17.866;2024-02-26T07:50:18;100831.22;;;2.81;81.30
19795;BME280;10057;59.402;17.866;2024-02-26T07:52:46;100827.69;;;2.87;80.97
19795;BME280;10057;59.402;17.866;2024-02-26T07:55:13;100837.25;;;2.99;81.15
19795;BME280;10057;59.402;17.866;2024-02-26T07:57:43;100837.25;;;3.02;81.13
19795;BME280;10057;59.402;17.866;2024-02-26T08:00:13;100841.56;;;3.11;81.36
19795;BME280;10057;59.402;17.866;2024-02-26T08:02:43;100843.28;;;3.16;81.23
19795;BME280;10057;59.402;17.866;2024-02-26T08:05:10;100845.88;;;3.21;81.42
19795;BME280;10057;59.402;17.866;2024-02-26T08:07:37;100846.72;;;3.26;81.00
19795;BME280;10057;59.402;17.866;2024-02-26T08:10:06;100841.47;;;3.27;80.78
19795;BME280;10057;59.402;17.866;2024-02-26T08:12:33;100847.56;;;3.32;80.95
19795;BME280;10057;59.402;17.866;2024-02-26T08:15:00;100857.13;;;3.40;81.08
19795;BME280;10057;59.402;17.866;2024-02-26T08:17:27;100867.63;;;3.43;80.97
19795;BME280;10057;59.402;17.866;2024-02-26T08:19:54;100864.09;;;3.47;81.13
19795;BME280;10057;59.402;17.866;2024-02-26T08:22:21;100869.31;;;3.48;81.00
19795;BME280;10057;59.402;17.866;2024-02-26T08:24:47;100875.44;;;3.47;80.99
19795;BME280;10057;59.402;17.866;2024-02-26T08:27:14;100884.16;;;3.51;81.02
19795;BME280;10057;59.402;17.866;2024-02-26T08:29:41;100884.19;;;3.49;80.92
19795;BME280;10057;59.402;17.866;2024-02-26T08:32:07;100886.81;;;3.52;80.61
19795;BME280;10057;59.402;17.866;2024-02-26T08:34:34;100890.28;;;3.53;80.87
19795;BME280;10057;59.402;17.866;2024-02-26T08:37:01;100892.03;;;3.54;81.14
19795;BME280;10057;59.402;17.866;2024-02-26T08:39:28;100888.53;;;3.53;80.62
19795;BME280;10057;59.402;17.866;2024-02-26T08:41:54;100889.34;;;3.59;80.92
19795;BME280;10057;59.402;17.866;2024-02-26T08:44:21;100886.72;;;3.62;81.00
19795;BME280;10057;59.402;17.866;2024-02-26T08:46:47;100893.72;;;3.64;80.91
19795;BME280;10057;59.402;17.866;2024-02-26T08:49:14;100886.72;;;3.63;80.63
19795;BME280;10057;59.402;17.866;2024-02-26T08:51:42;100896.31;;;3.66;80.62
19795;BME280;10057;59.402;17.866;2024-02-26T08:54:10;100895.44;;;3.68;80.87
19795;BME280;10057;59.402;17.866;2024-02-26T08:56:37;100900.69;;;3.70;80.74
19795;BME280;10057;59.402;17.866;2024-02-26T08:59:03;100898.94;;;3.70;81.24
19795;BME280;10057;59.402;17.866;2024-02-26T09:01:33;100901.50;;;3.75;80.59
19795;BME280;10057;59.402;17.866;2024-02-26T09:04:00;100898.88;;;3.76;81.00
19795;BME280;10057;59.402;17.866;2024-02-26T09:06:27;100904.06;;;3.83;80.77
19795;BME280;10057;59.402;17.866;2024-02-26T09:08:54;100914.56;;;3.87;80.98
19795;BME280;10057;59.402;17.866;2024-02-26T09:11:25;100911.88;;;3.92;80.89
19795;BME280;10057;59.402;17.866;2024-02-26T09:13:52;100912.69;;;4.03;80.94
19795;BME280;10057;59.402;17.866;2024-02-26T09:16:19;100918.75;;;4.11;81.07
19795;BME280;10057;59.402;17.866;2024-02-26T09:18:45;100928.31;;;4.21;80.92
19795;BME280;10057;59.402;17.866;2024-02-26T09:21:13;100922.94;;;4.31;80.72
19795;BME280;10057;59.402;17.866;2024-02-26T09:23:40;100931.66;;;4.39;80.99
19795;BME280;10057;59.402;17.866;2024-02-26T09:26:07;100930.72;;;4.44;80.76
19795;BME280;10057;59.402;17.866;2024-02-26T09:28:34;100935.03;;;4.53;80.81
19795;BME280;10057;59.402;17.866;2024-02-26T09:31:04;100927.94;;;4.61;80.71
19795;BME280;10057;59.402;17.866;2024-02-26T09:33:33;100926.97;;;4.70;80.50
19795;BME280;10057;59.402;17.866;2024-02-26T09:36:00;100929.47;;;4.84;80.74
19795;BME280;10057;59.402;17.866;2024-02-26T09:38:29;100942.53;;;4.93;80.60
19795;BME280;10057;59.402;17.866;2024-02-26T09:41:04;100938.06;;;4.98;80.57
19795;BME280;10057;59.402;17.866;2024-02-26T09:43:35;100938.88;;;5.05;80.61
19795;BME280;10057;59.402;17.866;2024-02-26T09:46:02;100949.31;;;5.12;80.72
19795;BME280;10057;59.402;17.866;2024-02-26T09:48:32;100942.22;;;5.19;80.24
19795;BME280;10057;59.402;17.866;2024-02-26T09:51:02;100941.34;;;5.18;80.32
19795;BME280;10057;59.402;17.866;2024-02-26T09:53:29;100939.47;;;5.28;80.44
19795;BME280;10057;59.402;17.866;2024-02-26T09:55:59;100949.06;;;5.34;79.92
19795;BME280;10057;59.402;17.866;2024-02-26T09:58:28;100934.97;;;5.36;80.16
19795;BME280;10057;59.402;17.866;2024-02-26T10:01:00;100940.13;;;5.45;80.08
19795;BME280;10057;59.402;17.866;2024-02-26T10:03:32;100937.44;;;5.50;79.85
19795;BME280;10057;59.402;17.866;2024-02-26T10:06:01;100937.41;;;5.53;80.07
19795;BME280;10057;59.402;17.866;2024-02-26T10:08:31;100937.41;;;5.53;79.79
19795;BME280;10057;59.402;17.866;2024-02-26T10:10:58;100939.16;;;5.54;79.70
19795;BME280;10057;59.402;17.866;2024-02-26T10:13:26;100940.88;;;5.55;79.51
19795;BME280;10057;59.402;17.866;2024-02-26T10:15:53;100947.03;;;5.56;79.59
19795;BME280;10057;59.402;17.866;2024-02-26T10:18:19;100951.38;;;5.58;79.78
19795;BME280;10057;59.402;17.866;2024-02-26T10:21:02;100946.13;;;5.57;79.49
19795;BME280;10057;59.402;17.866;2024-02-26T10:23:29;100952.28;;;5.56;79.66
19795;BME280;10057;59.402;17.866;2024-02-26T10:25:56;100949.66;;;5.57;79.67
19795;BME280;10057;59.402;17.866;2024-02-26T10:28:23;100951.34;;;5.61;79.60
19795;BME280;10057;59.402;17.866;2024-02-26T10:30:51;100945.22;;;5.59;79.75
19795;BME280;10057;59.402;17.866;2024-02-26T10:33:18;100946.91;;;5.63;79.89
19795;BME280;10057;59.402;17.866;2024-02-26T10:35:46;100948.59;;;5.67;79.38
19795;BME280;10057;59.402;17.866;2024-02-26T10:38:13;100949.47;;;5.69;79.57
19795;BME280;10057;59.402;17.866;2024-02-26T10:40:43;100948.59;;;5.69;79.59
19795;BME280;10057;59.402;17.866;2024-02-26T10:43:09;100949.38;;;5.76;79.78
19795;BME280;10057;59.402;17.866;2024-02-26T10:45:36;100944.03;;;5.80;79.96
19795;BME280;10057;59.402;17.866;2024-02-26T10:48:04;100945.72;;;5.86;79.58
19795;BME280;10057;59.402;17.866;2024-02-26T10:50:31;100952.72;;;5.88;79.36
19795;BME280;10057;59.402;17.866;2024-02-26T10:53:01;100945.69;;;5.89;79.51
19795;BME280;10057;59.402;17.866;2024-02-26T10:55:28;100948.31;;;5.89;79.16
19795;BME280;10057;59.402;17.866;2024-02-26T10:57:55;100948.28;;;5.90;79.34
19795;BME280;10057;59.402;17.866;2024-02-26T11:00:23;100947.41;;;5.90;79.63
19795;BME280;10057;59.402;17.866;2024-02-26T11:02:51;100943.00;;;5.92;79.62
19795;BME280;10057;59.402;17.866;2024-02-26T11:05:19;100947.38;;;5.96;79.62
19795;BME280;10057;59.402;17.866;2024-02-26T11:07:47;100942.88;;;6.01;79.13
19795;BME280;10057;59.402;17.866;2024-02-26T11:10:16;100941.03;;;6.08;79.06
19795;BME280;10057;59.402;17.866;2024-02-26T11:12:45;100943.63;;;6.12;79.44
19795;BME280;10057;59.402;17.866;2024-02-26T11:15:13;100940.91;;;6.17;79.02
19795;BME280;10057;59.402;17.866;2024-02-26T11:17:42;100939.03;;;6.24;79.36
19795;BME280;10057;59.402;17.866;2024-02-26T11:20:10;100938.06;;;6.29;79.29
19795;BME280;10057;59.402;17.866;2024-02-26T11:22:39;100945.75;;;6.43;79.04
19795;BME280;10057;59.402;17.866;2024-02-26T11:25:06;100944.75;;;6.50;79.17
19795;BME280;10057;59.402;17.866;2024-02-26T11:27:38;100937.63;;;6.55;78.84
19795;BME280;10057;59.402;17.866;2024-02-26T11:30:10;100943.66;;;6.62;78.60
19795;BME280;10057;59.402;17.866;2024-02-26T11:32:37;100943.59;;;6.65;78.43
19795;BME280;10057;59.402;17.866;2024-02-26T11:35:05;100940.06;;;6.66;78.58
19795;BME280;10057;59.402;17.866;2024-02-26T11:37:33;100943.56;;;6.67;78.34
19795;BME280;10057;59.402;17.866;2024-02-26T11:40:17;100942.69;;;6.68;78.55
19795;BME280;10057;59.402;17.866;2024-02-26T11:42:45;100940.91;;;6.67;78.46
19795;BME280;10057;59.402;17.866;2024-02-26T11:50:41;100948.09;;;6.58;78.29
19795;BME280;10057;59.402;17.866;2024-02-26T11:54:06;100962.19;;;6.56;78.10
19795;BME280;10057;59.402;17.866;2024-02-26T11:56:20;100955.28;;;6.50;78.03
19795;BME280;10057;59.402;17.866;2024-02-26T11:58:48;100959.69;;;6.48;78.61
19795;BME280;10057;59.402;17.866;2024-02-26T12:01:44;100959.78;;;6.44;78.15
19795;BME280;10057;59.402;17.866;2024-02-26T12:04:21;100961.56;;;6.41;78.60
19795;BME280;10057;59.402;17.866;2024-02-26T12:06:54;100962.47;;;6.39;78.33
19795;BME280;10057;59.402;17.866;2024-02-26T12:09:36;100945.00;;;6.35;78.82
19795;BME280;10057;59.402;17.866;2024-02-26T12:12:07;100945.00;;;6.35;78.53
19795;BME280;10057;59.402;17.866;2024-02-26T12:14:40;100947.56;;;6.39;78.42
19795;BME280;10057;59.402;17.866;2024-02-26T12:17:19;100948.44;;;6.40;78.65
19795;BME280;10057;59.402;17.866;2024-02-26T12:19:46;100949.31;;;6.39;78.40
19795;BME280;10057;59.402;17.866;2024-02-26T12:22:13;100949.22;;;6.45;78.39
19795;BME280;10057;59.402;17.866;2024-02-26T12:24:43;100948.34;;;6.46;78.61
19795;BME280;10057;59.402;17.866;2024-02-26T12:27:10;100951.81;;;6.48;78.76
19795;BME280;10057;59.402;17.866;2024-02-26T12:29:37;100954.38;;;6.51;78.48
19795;BME280;10057;59.402;17.866;2024-02-26T12:32:05;100957.03;;;6.51;78.26
19795;BME280;10057;59.402;17.866;2024-02-26T12:34:34;100948.25;;;6.49;78.32
19795;BME280;10057;59.402;17.866;2024-02-26T12:37:01;100963.16;;;6.53;78.28
19795;BME280;10057;59.402;17.866;2024-02-26T12:39:28;100956.97;;;6.54;78.36
19795;BME280;10057;59.402;17.866;2024-02-26T12:41:57;100958.69;;;6.55;78.12
19795;BME280;10057;59.402;17.866;2024-02-26T12:44:26;100958.69;;;6.55;78.08
19795;BME280;10057;59.402;17.866;2024-02-26T12:47:02;100952.66;;;6.50;78.63
19795;BME280;10057;59.402;17.866;2024-02-26T12:49:30;100959.63;;;6.53;78.47
19795;BME280;10057;59.402;17.866;2024-02-26T12:51:58;100958.75;;;6.52;78.46
19795;BME280;10057;59.402;17.866;2024-02-26T12:54:29;100952.59;;;6.53;78.59
19795;BME280;10057;59.402;17.866;2024-02-26T12:56:59;100955.25;;;6.53;78.59
19795;BME280;10057;59.402;17.866;2024-02-26T12:59:27;100967.53;;;6.54;78.28